Tybee Island, GA (31328)

10:40 AM EST on February 14, 2016 (GMT -0500)
Tid-Bit | | Change Station
CLOSE
Current Station
Personal Weather Station
Location: Tybee Island, GA
Elevation: 10 ft
Nearby Weather Stations
Active Advisory: Flood Warning

Elev 10 ft 32.01 °N, 80.85 °W | Updated 7 minutes ago

Clear
Clear
41.5 °F
Feels Like 37 °F
N
7.0
Wind Variable Wind from NE
Gusts 14.0 mph

Today
High -- | Low -- °F
--% Chance of Precip.
Yesterday
High -- | Low -- °F
Precip. -- in
Pressure 30.46 in
Visibility 10.0 miles
Clouds Clear
Windchill 37 °F
Dew Point 35 °F
Humidity 77%
Rainfall 0.00 in
Snow Depth Not available.
7:07 AM 6:08 PM
Waxing Crescent, 42% visible
METAR KHXD 141450Z 04010G18KT 10SM SKC 03/M03 A3046
Pressure 30.46 in
Visibility 10.0 miles
Clouds Clear
Windchill 37 °F
Dew Point 35 °F
Humidity 77%
Rainfall 0.00 in
Snow Depth Not available.
7:07 AM 6:08 PM
Waxing Crescent, 42% visible
METAR KHXD 141450Z 04010G18KT 10SM SKC 03/M03 A3046

10-Day Weather Forecast

Almanac

Astronomy

Feb. 14, 2016 Rise Set
Actual Time
Civil Twilight
Nautical Twilight
Astronomical Twilight
Moon
Length of Visible Light
Length of Day
Tomorrow will be .
, % of the Moon is Illuminated

Today's Extremes

State Highs State Lows

Community

WunderPhotos

Upload Photos

1,892,795 photos uploaded!

WunderBlog® & News

Nearby

Air Quality

  Air Quality AQ Index Pollutant
Not available.

Snow Depth

Station Depth Elevation

Earthquake Activity

City Distance Mag. Time & Date
Minimum magnitude displayed is 2.5.

Coastal Water Temperatures

Place Temperature

Stations

Nearby Weather Stations

Station Location Temp. Windchill Dew Point Humidity Wind Precip. Elev Updated Type
                   

Watches & Warnings

Flood Warning
Issued: 9:31 AM EST Feb. 14, 2016 – National Weather Service

The Flood Warning continues for
the Ogeechee river near Eden.
* At 8 am Sunday the stage was 12.0 feet.
* Flood stage is 11.0 feet.
* Minor flooding is occurring.
* Forecast, the river will continue to fall.
* At 12.0 feet, water encroaches on some homes along dashers Landing
Road and Yarbrough Landing Road. Davis Landing Road also becomes
impassable.


Lat... Lon 3246 8160 3252 8152 3227 8140 3208 8133
          3206 8143 3223 8150